Time;durP1;ratioP1;P1;durP2;ratioP2;P2;SDS_P1;SDS_P2;PMS_P1;PMS_P2;Temp;Humidity;BMP_temperature;BMP_pressure;BME280_temperature;BME280_humidity;BME280_pressure;Samples;Min_cycle;Max_cycle;Signal;HPM_P1;HPM_P2
2022/06/11 00:00:21;;;;;;;5.93;3.30;;;;;;;17.65;94.60;101358.25;698383;28;1368;-47
2022/06/11 00:00:41;;;;;;;6.07;3.03;;;;;;;17.64;94.37;101349.47;697669;28;959;-45
2022/06/11 00:01:02;;;;;;;6.03;3.05;;;;;;;17.64;94.00;101352.09;698702;28;1321;-46
2022/06/11 00:01:31;;;;;;;5.50;3.13;;;;;;;17.65;93.91;101355.63;696967;28;4349;-46
2022/06/11 00:01:55;;;;;;;6.72;3.60;;;;;;;17.66;93.88;101349.44;696561;28;1149;-45
2022/06/11 00:02:16;;;;;;;7.13;3.20;;;;;;;17.64;94.12;101352.09;696412;28;1316;-46
2022/06/11 00:02:36;;;;;;;7.38;3.20;;;;;;;17.64;93.80;101357.41;696797;28;1220;-46
2022/06/11 00:02:57;;;;;;;8.43;3.30;;;;;;;17.65;93.84;101355.63;697439;28;1208;-47
2022/06/11 00:03:18;;;;;;;6.80;3.20;;;;;;;17.64;93.85;101348.56;694885;28;1211;-46
2022/06/11 00:03:39;;;;;;;6.38;3.40;;;;;;;17.63;94.09;101355.66;695821;28;1535;-46
2022/06/11 00:04:04;;;;;;;6.40;3.35;;;;;;;17.64;93.99;101359.16;698405;28;1205;-45
2022/06/11 00:04:29;;;;;;;6.80;3.30;;;;;;;17.63;93.97;101355.66;697567;28;4772;-46
2022/06/11 00:04:50;;;;;;;6.32;3.55;;;;;;;17.63;93.96;101354.78;697777;28;1182;-46
2022/06/11 00:05:11;;;;;;;5.93;3.43;;;;;;;17.62;93.96;101353.03;697761;28;1222;-46
2022/06/11 00:05:32;;;;;;;6.50;3.40;;;;;;;17.61;94.26;101352.19;699587;28;1479;-46
2022/06/11 00:05:52;;;;;;;5.60;3.20;;;;;;;17.62;94.44;101358.34;699872;28;1204;-47
2022/06/11 00:06:12;;;;;;;7.40;3.30;;;;;;;17.61;94.34;101357.47;700641;28;1415;-46
2022/06/11 00:06:37;;;;;;;7.72;3.53;;;;;;;17.61;94.55;101357.47;700950;28;1327;-45
2022/06/11 00:07:04;;;;;;;6.70;3.38;;;;;;;17.60;94.33;101353.09;700381;28;1176;-46
2022/06/11 00:07:25;;;;;;;6.47;3.33;;;;;;;17.60;94.54;101355.72;696278;28;4775;-45
2022/06/11 00:07:45;;;;;;;6.25;3.20;;;;;;;17.60;94.50;101358.38;698020;28;1153;-46
2022/06/11 00:08:06;;;;;;;6.85;3.30;;;;;;;17.58;94.51;101354.88;698162;28;1385;-48
2022/06/11 00:08:26;;;;;;;6.93;3.50;;;;;;;17.59;94.91;101353.13;698077;28;1360;-46
2022/06/11 00:08:47;;;;;;;6.32;3.38;;;;;;;17.57;94.81;101358.44;698127;28;1225;-46
2022/06/11 00:09:09;;;;;;;5.30;3.35;;;;;;;17.57;95.07;101357.56;698236;28;1328;-46
2022/06/11 00:09:31;;;;;;;5.75;3.40;;;;;;;17.57;95.05;101354.91;699802;28;1344;-44
2022/06/11 00:09:53;;;;;;;5.20;3.38;;;;;;;17.55;95.86;101354.97;699815;28;1229;-45
2022/06/11 00:10:13;;;;;;;4.88;3.28;;;;;;;17.54;95.56;101355.84;700078;28;4318;-45
2022/06/11 00:10:34;;;;;;;6.18;3.50;;;;;;;17.52;95.64;101353.25;697790;28;1631;-45
2022/06/11 00:10:55;;;;;;;5.55;3.35;;;;;;;17.52;95.41;101357.69;698938;28;1158;-44
2022/06/11 00:11:16;;;;;;;5.60;3.20;;;;;;;17.52;95.68;101357.69;698135;28;1366;-46
2022/06/11 00:11:37;;;;;;;5.88;3.40;;;;;;;17.51;95.80;101345.34;698118;28;1513;-48
2022/06/11 00:12:00;;;;;;;5.85;3.28;;;;;;;17.51;96.02;101355.94;698042;28;1090;-44
2022/06/11 00:12:21;;;;;;;4.67;3.07;;;;;;;17.51;96.10;101356.81;699071;28;1436;-46
2022/06/11 00:12:41;;;;;;;5.72;3.33;;;;;;;17.49;95.84;101353.31;699729;28;1143;-45
2022/06/11 00:13:03;;;;;;;5.57;3.23;;;;;;;17.50;95.63;101354.19;697416;28;1321;-45
2022/06/11 00:13:24;;;;;;;5.68;3.28;;;;;;;17.50;95.98;101362.13;697823;28;4780;-45
2022/06/11 00:13:44;;;;;;;6.57;3.40;;;;;;;17.49;96.03;101352.47;700117;28;1264;-47
2022/06/11 00:14:05;;;;;;;5.65;3.20;;;;;;;17.48;96.32;101356.00;699792;28;1402;-45
2022/06/11 00:14:29;;;;;;;6.13;3.15;;;;;;;17.47;96.42;101357.78;701428;28;1328;-46
2022/06/11 00:14:49;;;;;;;6.60;3.22;;;;;;;17.47;96.80;101359.53;698907;28;1340;-45
2022/06/11 00:15:11;;;;;;;5.77;3.20;;;;;;;17.45;96.65;101356.94;700522;28;1309;-45
2022/06/11 00:15:32;;;;;;;5.75;3.05;;;;;;;17.46;96.29;101357.81;700788;28;1313;-45
2022/06/11 00:15:54;;;;;;;6.05;3.17;;;;;;;17.45;96.82;101353.44;701314;28;1296;-44
2022/06/11 00:16:17;;;;;;;5.35;3.30;;;;;;;17.45;96.42;101356.94;695490;28;4563;-44
2022/06/11 00:16:39;;;;;;;6.68;3.42;;;;;;;17.46;96.01;101360.44;697632;28;3762;-47
2022/06/11 00:17:01;;;;;;;5.82;3.40;;;;;;;17.47;95.76;101354.25;697003;28;1301;-45
2022/06/11 00:17:24;;;;;;;5.70;3.53;;;;;;;17.47;95.82;101356.91;694032;28;1178;-46
2022/06/11 00:17:44;;;;;;;6.35;3.47;;;;;;;17.46;96.09;101361.34;693185;28;1355;-46
2022/06/11 00:18:05;;;;;;;6.47;3.30;;;;;;;17.46;95.91;101357.81;694344;28;1325;-44
2022/06/11 00:18:25;;;;;;;6.10;3.07;;;;;;;17.46;95.85;101357.81;695858;28;2206;-46
2022/06/11 00:18:47;;;;;;;6.20;3.30;;;;;;;17.45;96.36;101356.09;695853;28;1343;-45
2022/06/11 00:19:08;;;;;;;5.33;3.30;;;;;;;17.45;96.10;101362.22;695754;28;4259;-44
2022/06/11 00:19:29;;;;;;;5.47;3.37;;;;;;;17.45;96.52;101356.09;699380;28;1368;-45
2022/06/11 00:19:50;;;;;;;6.57;3.67;;;;;;;17.43;96.41;101358.75;698407;28;1255;-46
2022/06/11 00:20:12;;;;;;;5.97;3.60;;;;;;;17.42;96.74;101359.66;699185;28;1321;-46
2022/06/11 00:20:32;;;;;;;7.25;3.33;;;;;;;17.41;96.79;101355.28;698698;28;1404;-44
2022/06/11 00:20:53;;;;;;;6.80;3.25;;;;;;;17.41;97.05;101357.06;698877;28;1022;-47
2022/06/11 00:21:14;;;;;;;7.10;3.20;;;;;;;17.40;96.87;101358.81;698537;28;1396;-45
2022/06/11 00:21:37;;;;;;;6.77;3.13;;;;;;;17.39;96.91;101361.50;698834;28;1324;-44
2022/06/11 00:21:58;;;;;;;6.47;3.22;;;;;;;17.39;96.86;101357.09;701019;28;1181;-45
2022/06/11 00:22:20;;;;;;;6.15;3.47;;;;;;;17.39;96.96;101361.50;700797;28;4330;-45
2022/06/11 00:22:41;;;;;;;5.50;3.28;;;;;;;17.40;97.11;101363.25;699855;28;1204;-44
2022/06/11 00:23:01;;;;;;;5.32;3.20;;;;;;;17.39;97.24;101367.66;701168;28;1389;-45
2022/06/11 00:23:22;;;;;;;6.70;3.43;;;;;;;17.38;97.33;101365.03;701111;28;1372;-45
2022/06/11 00:23:43;;;;;;;6.45;3.40;;;;;;;17.38;97.27;101359.75;699898;28;1125;-45
2022/06/11 00:24:05;;;;;;;6.97;3.67;;;;;;;17.38;97.35;101368.56;700747;28;1265;-47
2022/06/11 00:24:27;;;;;;;8.57;3.55;;;;;;;17.37;97.37;101364.16;701220;28;1381;-46
2022/06/11 00:24:48;;;;;;;7.75;3.60;;;;;;;17.35;97.42;101361.56;700484;28;1121;-46
2022/06/11 00:25:09;;;;;;;6.72;3.40;;;;;;;17.35;97.41;101361.56;699598;28;4530;-47
2022/06/11 00:25:32;;;;;;;6.68;3.25;;;;;;;17.37;97.28;101361.53;700420;28;1348;-45
2022/06/11 00:25:54;;;;;;;5.85;3.38;;;;;;;17.36;98.30;101368.59;700690;28;1239;-47
2022/06/11 00:26:15;;;;;;;7.78;3.53;;;;;;;17.35;97.99;101361.56;700681;28;1348;-45
2022/06/11 00:26:36;;;;;;;6.50;3.30;;;;;;;17.34;98.15;101359.81;697664;28;1415;-46
2022/06/11 00:26:58;;;;;;;6.93;3.53;;;;;;;17.33;98.61;101363.38;698505;28;1197;-47
2022/06/11 00:27:20;;;;;;;5.25;3.50;;;;;;;17.33;98.57;101363.38;694272;28;1202;-44
2022/06/11 00:27:40;;;;;;;6.07;3.30;;;;;;;17.33;98.92;101359.84;695292;28;1607;-46
2022/06/11 00:28:05;;;;;;;6.97;3.50;;;;;;;17.32;99.02;101366.91;693256;28;1358;-45
2022/06/11 00:28:25;;;;;;;6.88;3.35;;;;;;;17.30;100.00;101358.13;692550;28;4670;-46
2022/06/11 00:28:47;;;;;;;5.72;3.20;;;;;;;17.29;99.96;101355.53;695000;28;1157;-46
2022/06/11 00:29:08;;;;;;;5.85;3.42;;;;;;;17.28;99.62;101364.34;695948;28;1340;-46
2022/06/11 00:29:32;;;;;;;6.18;3.40;;;;;;;17.29;100.00;101360.81;695842;28;1384;-45
2022/06/11 00:29:52;;;;;;;5.30;3.30;;;;;;;17.27;99.85;101366.16;696973;28;1157;-46
2022/06/11 00:30:14;;;;;;;5.25;3.22;;;;;;;17.29;100.00;101359.06;698506;28;1245;-45
2022/06/11 00:30:35;;;;;;;4.90;3.20;;;;;;;17.31;99.59;101359.88;697361;28;1360;-45
2022/06/11 00:30:55;;;;;;;4.97;3.20;;;;;;;17.30;99.93;101366.06;694362;28;1375;-45
2022/06/11 00:31:17;;;;;;;5.90;3.40;;;;;;;17.28;99.65;101359.97;696011;28;4368;-46
2022/06/11 00:31:39;;;;;;;6.22;3.33;;;;;;;17.28;100.00;101367.00;697409;28;1419;-44
2022/06/11 00:31:59;;;;;;;5.22;3.20;;;;;;;17.27;100.00;101358.22;697928;28;1253;-47
2022/06/11 00:32:20;;;;;;;5.95;3.35;;;;;;;17.26;99.71;101363.53;697958;28;1527;-46
2022/06/11 00:32:41;;;;;;;6.22;3.30;;;;;;;17.24;99.25;101360.03;695519;28;1571;-46
2022/06/11 00:33:06;;;;;;;6.45;3.30;;;;;;;17.22;98.24;101359.22;697550;28;1355;-45
2022/06/11 00:33:27;;;;;;;7.93;3.70;;;;;;;17.21;98.12;101365.41;698669;28;1914;-45
2022/06/11 00:33:47;;;;;;;8.57;3.80;;;;;;;17.28;98.30;101367.88;697448;28;1221;-46
2022/06/11 00:34:08;;;;;;;6.55;3.50;;;;;;;17.34;98.48;101364.25;696162;28;4359;-46
2022/06/11 00:34:28;;;;;;;6.70;3.85;;;;;;;17.38;97.95;101360.63;699281;28;1421;-44
2022/06/11 00:34:49;;;;;;;6.73;3.50;;;;;;;17.38;97.96;101365.03;700831;28;1181;-45
2022/06/11 00:35:10;;;;;;;5.47;3.20;;;;;;;17.36;97.71;101368.59;700454;28;1438;-44
2022/06/11 00:35:31;;;;;;;5.45;3.25;;;;;;;17.35;97.82;101358.91;700837;28;1316;-44
2022/06/11 00:35:52;;;;;;;5.55;3.35;;;;;;;17.32;97.97;101359.00;700314;28;1193;-46
2022/06/11 00:36:12;;;;;;;6.50;3.58;;;;;;;17.32;98.43;101361.63;699925;28;1425;-46
2022/06/11 00:36:33;;;;;;;6.30;3.30;;;;;;;17.32;98.44;101361.63;695314;28;1399;-45
2022/06/11 00:36:54;;;;;;;5.82;3.20;;;;;;;17.31;98.18;101361.69;695788;28;1079;-45
2022/06/11 00:37:17;;;;;;;5.57;3.30;;;;;;;17.30;98.23;101358.13;694994;28;4545;-45
2022/06/11 00:37:38;;;;;;;6.97;3.60;;;;;;;17.30;98.44;101362.56;693301;28;1436;-45
2022/06/11 00:37:59;;;;;;;5.85;3.60;;;;;;;17.29;98.71;101367.00;690306;28;1175;-46
2022/06/11 00:38:20;;;;;;;6.88;3.70;;;;;;;17.27;98.76;101357.34;691465;28;1480;-45
2022/06/11 00:38:40;;;;;;;6.35;3.60;;;;;;;17.23;98.87;101359.19;690487;28;1516;-46
2022/06/11 00:39:01;;;;;;;5.72;3.60;;;;;;;17.23;98.48;101366.25;689662;28;1530;-47
2022/06/11 00:39:26;;;;;;;6.80;3.60;;;;;;;17.22;99.91;101364.50;690599;28;702;-45
2022/06/11 00:39:47;;;;;;;6.00;3.60;;;;;;;17.20;99.96;101359.25;693763;28;1280;-46
2022/06/11 00:40:09;;;;;;;5.78;3.55;;;;;;;17.20;99.72;101359.25;694884;28;4685;-47
2022/06/11 00:40:31;;;;;;;7.20;3.60;;;;;;;17.19;99.28;101366.28;698064;28;1265;-46
2022/06/11 00:40:53;;;;;;;7.22;3.60;;;;;;;17.18;99.36;101359.28;701239;28;1368;-47
2022/06/11 00:41:16;;;;;;;7.07;3.30;;;;;;;17.17;99.38;101360.19;699893;28;1460;-46
2022/06/11 00:41:41;;;;;;;7.35;3.50;;;;;;;17.18;99.61;101366.31;700025;28;938;-46
2022/06/11 00:42:08;;;;;;;8.47;3.43;;;;;;;17.14;100.00;101357.63;699909;28;1861;-46
2022/06/11 00:42:33;;;;;;;6.88;3.50;;;;;;;17.15;99.61;101359.34;701638;28;1332;-47
2022/06/11 00:42:53;;;;;;;5.40;3.22;;;;;;;17.16;99.13;101360.22;698001;28;1035;-47
2022/06/11 00:43:16;;;;;;;5.93;3.57;;;;;;;17.15;98.89;101361.13;695166;28;4602;-46
2022/06/11 00:43:39;;;;;;;6.13;3.60;;;;;;;17.13;98.99;101360.28;696061;28;1945;-47
2022/06/11 00:43:59;;;;;;;6.38;3.60;;;;;;;17.13;99.00;101365.56;696109;28;1218;-46
2022/06/11 00:44:20;;;;;;;7.03;3.37;;;;;;;17.13;99.46;101355.88;696393;28;1364;-46
2022/06/11 00:44:41;;;;;;;6.38;3.40;;;;;;;17.13;99.99;101352.38;696456;28;1602;-46
2022/06/11 00:45:25;;;;;;;7.10;3.60;;;;;;;17.12;100.00;101358.56;698687;28;1082;-47
2022/06/11 00:46:01;;;;;;;6.20;3.42;;;;;;;17.13;100.00;101355.00;702249;28;1305;-47
2022/06/11 00:46:42;;;;;;;5.93;3.40;;;;;;;17.11;100.00;101355.06;699905;28;4423;-46
2022/06/11 00:47:22;;;;;;;6.13;3.50;;;;;;;17.10;100.00;101353.31;699698;28;1372;-46
2022/06/11 00:47:47;;;;;;;5.80;3.50;;;;;;;17.10;100.00;101355.06;701132;28;1264;-46
2022/06/11 00:48:27;;;;;;;6.28;3.47;;;;;;;17.09;100.00;101354.19;700068;28;1317;-45
2022/06/11 00:48:48;;;;;;;7.32;3.75;;;;;;;17.10;100.00;101360.34;698951;28;1274;-49
2022/06/11 00:49:20;;;;;;;5.97;3.37;;;;;;;17.08;100.00;101352.44;699841;28;4263;-46
2022/06/11 00:49:53;;;;;;;5.90;3.28;;;;;;;17.07;100.00;101352.47;698587;28;1458;-45
2022/06/11 00:50:22;;;;;;;6.30;3.47;;;;;;;17.07;100.00;101355.13;701044;28;1233;-46
2022/06/11 00:50:47;;;;;;;7.65;3.65;;;;;;;17.06;100.00;101348.97;699526;28;1169;-46
2022/06/11 00:51:15;;;;;;;5.40;3.50;;;;;;;17.06;100.00;101358.66;698693;28;1033;-46
2022/06/11 00:51:36;;;;;;;6.60;3.53;;;;;;;17.04;100.00;101347.28;697686;28;1645;-46
2022/06/11 00:52:12;;;;;;;6.50;3.55;;;;;;;17.04;100.00;101355.19;695045;28;1130;-46
2022/06/11 00:52:41;;;;;;;6.10;3.42;;;;;;;17.04;100.00;101352.56;694390;28;4763;-46
2022/06/11 00:53:01;;;;;;;6.68;3.60;;;;;;;17.02;100.00;101350.81;694373;28;1269;-47
2022/06/11 00:53:36;;;;;;;6.35;3.30;;;;;;;17.01;100.00;101349.06;694725;28;1914;-46
2022/06/11 00:54:04;;;;;;;5.70;3.45;;;;;;;17.01;100.00;101349.06;697749;28;1200;-48
2022/06/11 00:54:26;;;;;;;5.43;3.30;;;;;;;17.04;100.00;101355.19;697916;28;1231;-46
2022/06/11 00:55:00;;;;;;;5.35;3.40;;;;;;;17.02;100.00;101357.88;697324;28;1099;-49
2022/06/11 00:55:34;;;;;;;6.45;3.55;;;;;;;17.02;100.00;101353.44;697530;28;4376;-45
2022/06/11 00:55:54;;;;;;;6.22;3.50;;;;;;;17.01;100.00;101356.13;697721;28;1560;-46
2022/06/11 00:56:22;;;;;;;5.80;3.53;;;;;;;17.02;100.00;101352.59;697205;28;1158;-45
2022/06/11 00:56:47;;;;;;;5.40;3.40;;;;;;;17.01;100.00;101354.34;695474;28;1281;-46
2022/06/11 00:57:09;;;;;;;4.75;3.03;;;;;;;17.03;100.00;101356.97;695979;28;1364;-46
2022/06/11 00:57:33;;;;;;;5.30;3.42;;;;;;;17.01;100.00;101353.47;697869;28;953;-46
2022/06/11 00:58:02;;;;;;;6.00;3.40;;;;;;;17.01;100.00;101346.41;697569;28;1998;-45
2022/06/11 00:58:33;;;;;;;5.00;3.30;;;;;;;17.01;100.00;101353.47;697248;28;4492;-47
2022/06/11 00:58:59;;;;;;;6.45;3.70;;;;;;;16.99;100.00;101356.16;700815;28;1119;-45
2022/06/11 00:59:27;;;;;;;6.60;3.60;;;;;;;17.01;100.00;101353.47;700236;28;1320;-47
2022/06/11 00:59:51;;;;;;;6.18;3.15;;;;;;;17.00;100.00;101349.97;700880;28;1019;-46
2022/06/11 01:00:18;;;;;;;6.78;3.13;;;;;;;16.99;100.00;101356.16;697428;28;2032;-47
2022/06/11 01:00:43;;;;;;;6.90;3.40;;;;;;;17.00;100.00;101355.25;691096;28;2108;-46
2022/06/11 01:01:05;;;;;;;6.07;3.17;;;;;;;17.02;100.00;101353.44;694661;28;4409;-45
2022/06/11 01:01:27;;;;;;;6.93;3.40;;;;;;;17.02;100.00;101356.09;695525;28;1542;-46
2022/06/11 01:01:48;;;;;;;6.72;3.40;;;;;;;17.02;100.00;101352.59;695944;28;1166;-47
2022/06/11 01:02:10;;;;;;;6.03;3.47;;;;;;;17.02;100.00;101358.72;697231;28;1553;-45
2022/06/11 01:02:30;;;;;;;7.03;3.40;;;;;;;17.01;100.00;101356.97;698955;28;1313;-45
2022/06/11 01:02:52;;;;;;;7.70;3.50;;;;;;;17.00;100.00;101349.97;696573;28;1511;-46
2022/06/11 01:03:17;;;;;;;5.88;3.53;;;;;;;17.00;100.00;101347.34;699364;28;1179;-45
2022/06/11 01:03:41;;;;;;;7.07;3.30;;;;;;;17.01;100.00;101350.84;699227;28;1336;-46
2022/06/11 01:04:23;;;;;;;5.93;3.40;;;;;;;16.98;100.00;101345.63;699081;28;1332;-46
2022/06/11 01:04:52;;;;;;;6.13;3.67;;;;;;;16.99;100.00;101347.38;700703;28;4878;-47
2022/06/11 01:05:23;;;;;;;5.30;3.28;;;;;;;16.95;100.00;101346.56;700836;28;1190;-47
2022/06/11 01:05:48;;;;;;;6.32;3.17;;;;;;;16.95;100.00;101345.69;696990;28;1245;-46
2022/06/11 01:06:28;;;;;;;6.13;3.13;;;;;;;16.94;100.00;101343.94;696930;28;1325;-46
2022/06/11 01:06:54;;;;;;;5.93;3.47;;;;;;;16.94;100.00;101343.94;696199;28;1153;-47
2022/06/11 01:07:31;;;;;;;6.05;3.30;;;;;;;16.92;100.00;101335.19;696744;28;5434;-46
2022/06/11 01:08:14;;;;;;;5.80;3.40;;;;;;;16.92;100.00;101341.34;698582;28;1098;-48
2022/06/11 01:09:09;;;;;;;6.07;3.30;;;;;;;16.92;100.00;101346.63;697963;28;1337;-46
2022/06/11 01:09:55;;;;;;;5.72;3.30;;;;;;;16.92;100.00;101349.28;692132;28;1333;-46
2022/06/11 01:10:36;;;;;;;7.43;3.75;;;;;;;16.94;100.00;101343.94;695319;28;4558;-45
2022/06/11 01:11:05;;;;;;;7.07;3.67;;;;;;;16.94;100.00;101344.81;696864;28;1677;-47
2022/06/11 01:11:39;;;;;;;7.15;3.40;;;;;;;16.97;100.00;101347.38;697349;28;1377;-47
2022/06/11 01:11:59;;;;;;;6.93;3.55;;;;;;;16.98;100.00;101350.91;696495;28;1221;-45
2022/06/11 01:12:31;;;;;;;7.35;3.75;;;;;;;16.98;100.00;101343.00;697047;28;1274;-47
2022/06/11 01:12:59;;;;;;;5.72;3.50;;;;;;;16.98;100.00;101348.28;695423;28;1169;-45
2022/06/11 01:13:34;;;;;;;6.25;3.70;;;;;;;16.98;100.00;101349.13;696444;28;4516;-47
2022/06/11 01:14:00;;;;;;;5.93;3.63;;;;;;;16.98;100.00;101348.28;697065;28;1231;-47
2022/06/11 01:14:46;;;;;;;6.40;3.50;;;;;;;16.99;100.00;101353.53;697185;28;1523;-47
2022/06/11 01:15:22;;;;;;;5.47;3.22;;;;;;;17.01;100.00;101351.69;697014;28;1182;-45
2022/06/11 01:15:48;;;;;;;7.45;3.65;;;;;;;16.99;100.00;101353.53;695706;28;1358;-47
2022/06/11 01:16:26;;;;;;;5.20;3.42;;;;;;;17.00;100.00;101349.09;695702;28;4400;-45
2022/06/11 01:16:49;;;;;;;7.68;3.40;;;;;;;17.01;100.00;101356.97;697053;28;1469;-46
2022/06/11 01:17:51;;;;;;;5.50;3.40;;;;;;;17.01;100.00;101356.13;700689;28;1170;-46
2022/06/11 01:18:23;;;;;;;6.35;3.55;;;;;;;16.99;100.00;101358.81;699660;28;1186;-46
2022/06/11 01:19:00;;;;;;;7.57;3.80;;;;;;;17.00;100.00;101351.72;699464;28;1295;-48
2022/06/11 01:19:33;;;;;;;6.05;3.65;;;;;;;16.99;100.00;101350.03;698562;28;4444;-47
2022/06/11 01:20:29;;;;;;;6.72;3.40;;;;;;;16.97;100.00;101347.38;699063;28;1106;-46
2022/06/11 01:20:56;;;;;;;6.18;3.30;;;;;;;16.95;100.00;101345.69;699537;28;1138;-46
2022/06/11 01:21:27;;;;;;;5.97;3.40;;;;;;;16.92;100.00;101343.09;698805;28;1194;-46
2022/06/11 01:22:03;;;;;;;6.43;3.47;;;;;;;16.90;100.00;101343.13;696716;28;1437;-45
2022/06/11 01:22:29;;;;;;;7.22;3.50;;;;;;;16.88;100.00;101350.19;696990;28;4895;-46
2022/06/11 01:23:14;;;;;;;6.90;3.42;;;;;;;16.88;100.00;101344.03;695277;28;1194;-48
2022/06/11 01:23:56;;;;;;;5.22;3.20;;;;;;;16.88;100.00;101344.03;698575;28;1407;-45
2022/06/11 01:24:55;;;;;;;5.30;3.35;;;;;;;16.89;100.00;101340.53;699921;28;1463;-45
2022/06/11 01:25:32;;;;;;;5.78;3.72;;;;;;;16.89;100.00;101348.44;697792;28;4304;-46
2022/06/11 01:26:05;;;;;;;7.53;3.45;;;;;;;16.87;100.00;101353.72;698112;28;1192;-46
2022/06/11 01:26:54;;;;;;;6.70;3.50;;;;;;;16.86;100.00;101346.69;700308;28;1296;-45
2022/06/11 01:27:33;;;;;;;8.40;3.60;;;;;;;16.85;100.00;101351.13;699344;28;1344;-46
2022/06/11 01:27:59;;;;;;;7.95;3.42;;;;;;;16.87;100.00;101345.81;694696;28;1119;-46
2022/06/11 01:28:52;;;;;;;6.63;3.42;;;;;;;16.86;100.00;101346.69;694331;28;4400;-46
2022/06/11 01:29:33;;;;;;;6.10;3.40;;;;;;;16.83;100.00;101345.00;691661;28;1338;-48
2022/06/11 01:29:57;;;;;;;6.63;3.20;;;;;;;16.84;100.00;101353.81;697266;28;1512;-46
2022/06/11 01:30:26;;;;;;;5.68;3.20;;;;;;;16.84;100.00;101348.53;698384;28;1542;-46
2022/06/11 01:30:56;;;;;;;6.30;3.30;;;;;;;16.84;100.00;101346.75;696880;28;1185;-46
2022/06/11 01:31:30;;;;;;;6.05;3.95;;;;;;;16.83;100.00;101346.78;695148;28;4438;-46
2022/06/11 01:32:14;;;;;;;5.50;3.50;;;;;;;16.83;100.00;101346.78;696372;28;1350;-45
2022/06/11 01:32:45;;;;;;;6.55;3.33;;;;;;;16.85;100.00;101350.28;697786;28;1478;-46
2022/06/11 01:33:21;;;;;;;6.47;3.33;;;;;;;16.83;100.00;101342.34;698209;28;1344;-46
2022/06/11 01:34:04;;;;;;;7.72;3.45;;;;;;;16.83;100.00;101352.06;699174;28;1205;-46
2022/06/11 01:34:41;;;;;;;5.63;3.20;;;;;;;16.82;100.00;101345.03;698840;28;4711;-47
2022/06/11 01:35:12;;;;;;;7.35;3.40;;;;;;;16.82;100.00;101352.94;699932;28;1416;-46
2022/06/11 01:35:48;;;;;;;5.40;3.20;;;;;;;16.83;100.00;101352.06;699771;28;1455;-46
2022/06/11 01:36:18;;;;;;;6.35;3.28;;;;;;;16.83;100.00;101352.06;696171;28;1305;-45
2022/06/11 01:36:43;;;;;;;6.10;3.40;;;;;;;16.82;100.00;101350.31;697693;28;1376;-45
2022/06/11 01:37:17;;;;;;;5.65;3.50;;;;;;;16.80;100.00;101352.97;697537;28;4287;-47
2022/06/11 01:37:53;;;;;;;5.35;3.45;;;;;;;16.80;100.00;101346.84;696838;28;1557;-46
2022/06/11 01:38:22;;;;;;;5.88;3.40;;;;;;;16.79;100.00;101351.22;700501;28;1422;-46
2022/06/11 01:38:53;;;;;;;5.70;3.28;;;;;;;16.80;100.00;101346.84;697429;28;1218;-48
2022/06/11 01:39:49;;;;;;;7.32;3.67;;;;;;;16.79;100.00;101345.09;697804;28;4946;-47
2022/06/11 01:40:25;;;;;;;5.72;3.17;;;;;;;16.78;100.00;101348.63;691471;28;4307;-45
2022/06/11 01:41:05;;;;;;;6.15;3.40;;;;;;;16.78;100.00;101345.97;690757;28;1283;-46
2022/06/11 01:41:37;;;;;;;6.47;3.70;;;;;;;16.78;100.00;101338.06;690862;28;1314;-45
2022/06/11 01:42:02;;;;;;;8.30;3.42;;;;;;;16.76;100.00;101346.00;690862;28;1162;-46
2022/06/11 01:42:28;;;;;;;6.30;3.67;;;;;;;16.76;100.00;101350.44;690827;28;1322;-46
2022/06/11 01:42:54;;;;;;;5.82;3.50;;;;;;;16.75;100.00;101344.25;695158;28;1294;-47
2022/06/11 01:43:22;;;;;;;6.43;3.63;;;;;;;16.76;100.00;101347.78;699202;28;4547;-45
2022/06/11 01:43:46;;;;;;;6.82;3.75;;;;;;;16.75;100.00;101346.91;697916;28;892;-46
2022/06/11 01:44:13;;;;;;;7.10;3.60;;;;;;;16.74;100.00;101352.22;700443;28;1186;-45
2022/06/11 01:44:38;;;;;;;5.45;3.60;;;;;;;16.72;100.00;101349.63;700288;28;1214;-47
2022/06/11 01:45:08;;;;;;;5.00;3.38;;;;;;;16.73;100.00;101345.22;700778;28;1180;-47
2022/06/11 01:45:35;;;;;;;6.13;3.53;;;;;;;16.72;100.00;101348.75;695763;28;1682;-48
2022/06/11 01:45:56;;;;;;;6.03;3.75;;;;;;;16.72;100.00;101348.75;696601;28;1103;-45
2022/06/11 01:46:21;;;;;;;6.70;3.63;;;;;;;16.71;100.00;101347.88;696200;28;4533;-46
2022/06/11 01:46:46;;;;;;;6.28;3.53;;;;;;;16.71;100.00;101353.16;693570;28;1146;-46
2022/06/11 01:47:07;;;;;;;7.10;3.50;;;;;;;16.71;100.00;101347.88;692915;28;1498;-46
2022/06/11 01:47:28;;;;;;;7.32;3.38;;;;;;;16.71;100.00;101344.38;696590;28;1322;-46
2022/06/11 01:47:50;;;;;;;8.50;3.50;;;;;;;16.71;100.00;101347.00;696999;28;1110;-46
2022/06/11 01:48:17;;;;;;;7.10;3.47;;;;;;;16.72;100.00;101351.41;694959;28;1250;-46
2022/06/11 01:48:51;;;;;;;6.07;3.38;;;;;;;16.71;100.00;101347.00;694211;28;1199;-45
2022/06/11 01:49:20;;;;;;;5.22;3.47;;;;;;;16.69;100.00;101353.19;694508;28;4438;-47
2022/06/11 01:49:47;;;;;;;5.38;3.22;;;;;;;16.68;100.00;101350.56;695226;28;1448;-45
2022/06/11 01:50:10;;;;;;;5.68;3.40;;;;;;;16.68;100.00;101353.22;695090;28;974;-45
2022/06/11 01:50:36;;;;;;;5.95;3.50;;;;;;;16.67;100.00;101352.34;699794;28;1344;-46
2022/06/11 01:51:05;;;;;;;7.63;3.65;;;;;;;16.67;100.00;101348.84;700448;28;1545;-50
2022/06/11 01:51:43;;;;;;;6.88;3.45;;;;;;;16.67;100.00;101347.06;700080;28;1387;-47
2022/06/11 01:52:33;;;;;;;6.93;3.65;;;;;;;16.67;100.00;101352.34;698737;28;4703;-45
2022/06/11 01:53:05;;;;;;;7.35;3.30;;;;;;;16.66;100.00;101350.59;700273;28;1138;-46
2022/06/11 01:53:57;;;;;;;6.50;3.50;;;;;;;16.67;100.00;101351.50;697606;28;2015;-46
2022/06/11 01:54:36;;;;;;;6.45;3.40;;;;;;;16.67;100.00;101348.84;697029;28;1373;-46
2022/06/11 01:55:15;;;;;;;6.15;3.38;;;;;;;16.65;100.00;101353.28;694976;28;1146;-46
2022/06/11 01:55:55;;;;;;;6.72;3.35;;;;;;;16.65;100.00;101356.78;694557;28;4702;-46
2022/06/11 01:56:39;;;;;;;6.22;3.28;;;;;;;16.66;100.00;101355.88;695130;28;1400;-45
2022/06/11 01:57:29;;;;;;;7.45;3.47;;;;;;;16.66;100.00;101355.88;694730;28;1174;-46
2022/06/11 01:58:06;;;;;;;6.28;3.20;;;;;;;16.64;100.00;101347.16;700444;28;1180;-46
2022/06/11 01:59:06;;;;;;;6.25;3.50;;;;;;;16.61;100.00;101346.31;699625;28;4759;-45
2022/06/11 01:59:44;;;;;;;6.70;3.80;;;;;;;16.61;100.00;101352.44;686808;28;2115;-48
2022/06/11 02:00:11;;;;;;;6.00;3.20;;;;;;;16.60;100.00;101353.38;693281;28;1309;-47
2022/06/11 02:00:35;;;;;;;7.45;3.53;;;;;;;16.60;100.00;101347.22;695599;28;1285;-46
2022/06/11 02:01:18;;;;;;;6.30;3.30;;;;;;;16.60;100.00;101352.47;689550;28;2137;-45
2022/06/11 02:01:55;;;;;;;7.80;3.90;;;;;;;16.59;100.00;101342.84;692056;28;4791;-48
2022/06/11 02:02:47;;;;;;;5.50;3.35;;;;;;;16.58;100.00;101349.03;689389;28;1527;-46
2022/06/11 02:03:52;;;;;;;5.97;3.45;;;;;;;16.58;100.00;101351.66;695534;28;1305;-47
2022/06/11 02:04:31;;;;;;;5.80;3.42;;;;;;;16.57;100.00;101348.13;686971;28;4547;-45
2022/06/11 02:05:11;;;;;;;5.60;3.38;;;;;;;16.56;100.00;101349.06;687517;28;1180;-46
2022/06/11 02:05:53;;;;;;;7.45;3.35;;;;;;;16.55;100.00;101357.00;700429;28;1282;-46
2022/06/11 02:06:26;;;;;;;6.68;3.20;;;;;;;16.55;100.00;101347.31;699911;28;1324;-45
2022/06/11 02:06:55;;;;;;;6.82;3.30;;;;;;;16.55;100.00;101354.38;699632;28;1137;-46
2022/06/11 02:07:41;;;;;;;6.05;3.50;;;;;;;16.52;100.00;101353.50;699711;28;4850;-47
2022/06/11 02:08:28;;;;;;;5.15;3.20;;;;;;;16.50;100.00;101354.44;687224;28;1587;-46
2022/06/11 02:08:52;;;;;;;6.05;3.50;;;;;;;16.52;100.00;101353.50;696234;28;1203;-45
2022/06/11 02:09:35;;;;;;;5.22;3.40;;;;;;;16.54;100.00;101348.19;696678;28;4264;-46
2022/06/11 02:10:13;;;;;;;5.57;3.20;;;;;;;16.54;100.00;101353.47;697563;28;1185;-46
2022/06/11 02:10:53;;;;;;;6.38;3.25;;;;;;;16.52;100.00;101353.50;697114;28;4733;-48
2022/06/11 02:11:31;;;;;;;5.95;3.38;;;;;;;16.52;100.00;101357.94;697568;28;1353;-45
2022/06/11 02:12:02;;;;;;;6.07;3.30;;;;;;;16.52;100.00;101356.16;694353;28;1249;-46
2022/06/11 02:12:37;;;;;;;5.47;3.30;;;;;;;16.52;100.00;101352.66;693046;28;1286;-46
2022/06/11 02:13:21;;;;;;;6.47;3.22;;;;;;;16.52;100.00;101355.28;695145;28;1315;-46
2022/06/11 02:14:01;;;;;;;5.38;3.15;;;;;;;16.53;100.00;101357.00;696596;28;4832;-45